This is the latest recevied weather packets stored in our database for station/object DG2YCM-10. If no packets are shown the sender has not sent any weather packets the latest 10 day(s).
| Time | Temp. | Humidity | Pressure | Rain* | Wind** | Luminosity | Snow |
|---|---|---|---|---|---|---|---|
| 1778184181 | 13.33° C | 78% | 1010.7 hPa | - | - | - | - |
| 1778180641 | 14.44° C | 75% | 1010.3 hPa | - | - | - | - |
| 1778177101 | 15° C | 69% | 1010.1 hPa | - | - | - | - |
| 1778173561 | 16.11° C | 61% | 1010 hPa | - | - | - | - |
| 1778170020 | 16.67° C | 57% | 1009.9 hPa | - | - | - | - |
| 1778166480 | 16.11° C | 61% | 1009.8 hPa | - | - | - | - |
| 1778162940 | 17.22° C | 57% | 1010 hPa | - | - | - | - |
| 1778159400 | 17.22° C | 58% | 1010 hPa | - | - | - | - |
| 1778155864 | 16.67° C | 60% | 1010 hPa | - | - | - | - |
| 1778152320 | 15.56° C | 60% | 1009.8 hPa | - | - | - | - |
| 1778148779 | 15° C | 67% | 1009.8 hPa | - | - | - | - |
| 1778145239 | 13.33° C | 74% | 1009.5 hPa | - | - | - | - |
| 1778141699 | 12.78° C | 79% | 1009.1 hPa | - | - | - | - |
| 1778138159 | 11.67° C | 86% | 1008.6 hPa | - | - | - | - |
| 1778134619 | 10.56° C | 94% | 1008.2 hPa | - | - | - | - |
| 1778131079 | 10.56° C | 95% | 1007.7 hPa | - | - | - | - |
| 1778127539 | 10.56° C | 92% | 1007 hPa | - | - | - | - |
| 1778124037 | 10.56° C | 92% | 1006.7 hPa | - | - | - | - |
| 1778123999 | 10.56° C | 92% | 1006.7 hPa | - | - | - | - |
| 1778120458 | 10.56° C | 95% | 1006.5 hPa | - | - | - | - |
| 1778116918 | 10.56° C | 94% | 1006.3 hPa | - | - | - | - |
| 1778113378 | 11.11° C | 90% | 1005.8 hPa | - | - | - | - |
| 1778109838 | 11.67° C | 88% | 1005.7 hPa | - | - | - | - |
| 1778106297 | 11.67° C | 87% | 1005.4 hPa | - | - | - | - |
| 1778102757 | 11.11° C | 86% | 1004.9 hPa | - | - | - | - |
* Rain since midnight (hover to see other rain measurements)
** Current wind speed in m/s (hover to see current wind gust speed)